createdAt,value
2023-03-11T00:01:15.663Z,92617.53
2023-03-11T00:03:42.052Z,92665.78
2023-03-11T00:06:08.455Z,92622.06
2023-03-11T00:08:34.872Z,92630.41
2023-03-11T00:11:02.347Z,92638.09
2023-03-11T00:13:29.509Z,92640.97
2023-03-11T00:15:56.876Z,92685.34
2023-03-11T00:18:28.088Z,92675.00
2023-03-11T00:20:56.394Z,92663.97
2023-03-11T00:23:24.693Z,92695.09
2023-03-11T00:25:51.345Z,92667.19
2023-03-11T00:28:18.166Z,92694.53
2023-03-11T00:30:46.290Z,92674.16
2023-03-11T00:33:14.958Z,92692.47
2023-03-11T00:35:42.485Z,92692.31
2023-03-11T00:38:12.986Z,92674.56
2023-03-11T00:40:39.913Z,92703.03
2023-03-11T00:43:06.297Z,92701.31
2023-03-11T00:45:33.715Z,92729.22
2023-03-11T00:48:00.301Z,92691.84
2023-03-11T00:50:30.854Z,92711.81
2023-03-11T00:52:58.194Z,92711.97
2023-03-11T00:55:28.030Z,92678.56
2023-03-11T00:57:57.070Z,92690.56
2023-03-11T01:00:24.762Z,92706.78
2023-03-11T01:02:53.440Z,92712.88
2023-03-11T01:05:22.508Z,92714.56
2023-03-11T01:07:49.675Z,92683.81
2023-03-11T01:10:16.935Z,92707.84
2023-03-11T01:12:43.686Z,92701.69
2023-03-11T01:15:17.719Z,92692.19
2023-03-11T01:17:46.451Z,92675.94
2023-03-11T01:20:13.683Z,92700.97
2023-03-11T01:22:40.086Z,92669.31
2023-03-11T01:25:07.064Z,92679.47
2023-03-11T01:27:33.503Z,92663.31
2023-03-11T01:29:59.872Z,92673.78
2023-03-11T01:32:26.324Z,92647.78
2023-03-11T01:34:52.737Z,92671.81
2023-03-11T01:37:20.162Z,92670.44
2023-03-11T01:39:46.617Z,92665.50
2023-03-11T01:42:13.125Z,92672.66
2023-03-11T01:44:39.500Z,92659.69
2023-03-11T01:47:05.803Z,92687.16
2023-03-11T01:49:32.258Z,92625.25
2023-03-11T01:52:03.870Z,92693.75
2023-03-11T01:54:35.271Z,92687.59
2023-03-11T01:57:08.962Z,92685.31
2023-03-11T01:59:44.591Z,92683.81
2023-03-11T02:02:26.616Z,92712.44
2023-03-11T02:04:54.653Z,92687.72
2023-03-11T02:07:21.401Z,92684.13
2023-03-11T02:09:59.156Z,92690.13
2023-03-11T02:12:31.057Z,92685.09
2023-03-11T02:14:57.530Z,92704.88
2023-03-11T02:17:24.104Z,92689.00
2023-03-11T02:19:56.415Z,92700.28
2023-03-11T02:22:24.075Z,92711.59
2023-03-11T02:25:00.526Z,92680.38
2023-03-11T02:27:28.141Z,92680.84
2023-03-11T02:29:56.821Z,92663.94
2023-03-11T02:32:24.337Z,92695.38
2023-03-11T02:34:50.773Z,92678.44
2023-03-11T02:37:17.851Z,92698.00
2023-03-11T02:39:47.402Z,92697.00
2023-03-11T02:42:19.126Z,92682.22
2023-03-11T02:44:49.266Z,92695.72
2023-03-11T02:47:16.928Z,92664.94
2023-03-11T02:49:43.722Z,92662.41
2023-03-11T02:52:10.117Z,92694.31
2023-03-11T02:54:36.483Z,92668.56
2023-03-11T02:57:17.089Z,92692.28
2023-03-11T02:59:43.491Z,92693.75
2023-03-11T03:02:10.028Z,92673.75
2023-03-11T03:04:36.511Z,92688.41
2023-03-11T03:07:03.218Z,92681.41
2023-03-11T03:09:29.609Z,92692.97
2023-03-11T03:11:56.043Z,92681.19
2023-03-11T03:14:45.471Z,92703.03
2023-03-11T03:17:12.034Z,92688.94
2023-03-11T03:19:38.450Z,92700.81
2023-03-11T03:22:04.925Z,92712.88
2023-03-11T03:24:31.335Z,92694.34
2023-03-11T03:27:10.986Z,92709.09
2023-03-11T03:29:37.384Z,92721.09
2023-03-11T03:32:04.008Z,92717.91
2023-03-11T03:34:30.409Z,92692.94
2023-03-11T03:36:56.842Z,92703.38
2023-03-11T03:39:23.230Z,92725.91
2023-03-11T03:41:49.635Z,92687.03
2023-03-11T03:44:18.299Z,92701.88
2023-03-11T03:46:44.714Z,92682.59
2023-03-11T03:49:11.395Z,92709.38
2023-03-11T03:51:37.813Z,92675.06
2023-03-11T03:54:04.367Z,92693.28
2023-03-11T03:56:30.781Z,92733.47
2023-03-11T03:59:07.395Z,92720.41
2023-03-11T04:01:33.855Z,92703.16
2023-03-11T04:04:00.239Z,92701.19
2023-03-11T04:06:27.614Z,92730.38
2023-03-11T04:09:00.242Z,92711.78
2023-03-11T04:11:35.066Z,92700.81
2023-03-11T04:14:02.539Z,92701.44
2023-03-11T04:16:29.176Z,92715.91
2023-03-11T04:18:55.599Z,92712.13
2023-03-11T04:21:22.046Z,92706.16
2023-03-11T04:23:48.475Z,92698.00
2023-03-11T04:26:15.442Z,92705.03
2023-03-11T04:28:41.870Z,92729.44
2023-03-11T04:31:08.305Z,92735.88
2023-03-11T04:33:34.770Z,92730.06
2023-03-11T04:36:05.870Z,92752.84
2023-03-11T04:38:32.352Z,92744.84
2023-03-11T04:41:02.987Z,92756.00
2023-03-11T04:43:29.403Z,92742.50
2023-03-11T04:45:55.979Z,92717.84
2023-03-11T04:48:22.810Z,92757.94
2023-03-11T04:50:49.196Z,92735.03
2023-03-11T04:53:19.660Z,92735.69
2023-03-11T04:55:47.817Z,92744.09
2023-03-11T04:58:14.457Z,92736.78
2023-03-11T05:00:41.286Z,92725.53
2023-03-11T05:03:08.072Z,92727.22
2023-03-11T05:05:37.935Z,92765.13
2023-03-11T05:08:04.697Z,92743.66
2023-03-11T05:10:32.144Z,92735.63
2023-03-11T05:12:59.343Z,92772.22
2023-03-11T05:15:25.821Z,92754.56
2023-03-11T05:17:52.241Z,92742.03
2023-03-11T05:20:24.726Z,92770.28
2023-03-11T05:22:51.137Z,92762.91
2023-03-11T05:25:17.803Z,92758.59
2023-03-11T05:27:44.311Z,92741.44
2023-03-11T05:30:11.195Z,92772.25
2023-03-11T05:32:37.631Z,92757.78
2023-03-11T05:35:04.409Z,92774.50
2023-03-11T05:37:32.195Z,92802.41
2023-03-11T05:39:58.655Z,92786.84
2023-03-11T05:42:25.168Z,92795.50
2023-03-11T05:44:51.583Z,92780.25
2023-03-11T05:47:18.463Z,92807.03
2023-03-11T05:49:48.546Z,92795.66
2023-03-11T05:52:15.380Z,92775.75
2023-03-11T05:54:41.927Z,92768.38
2023-03-11T05:57:08.408Z,92785.53
2023-03-11T05:59:35.470Z,92797.91
2023-03-11T06:02:06.927Z,92770.94
2023-03-11T06:04:33.425Z,92767.72
2023-03-11T06:07:02.968Z,92786.28
2023-03-11T06:09:36.870Z,92768.69
2023-03-11T06:12:12.412Z,92796.59
2023-03-11T06:14:38.869Z,92776.38
2023-03-11T06:17:05.379Z,92779.91
2023-03-11T06:19:31.862Z,92805.25
2023-03-11T06:21:59.342Z,92796.09
2023-03-11T06:24:29.700Z,92782.59
2023-03-11T06:27:11.217Z,92795.25
2023-03-11T06:29:37.645Z,92777.56
2023-03-11T06:32:04.332Z,92798.28
2023-03-11T06:34:30.794Z,92779.03
2023-03-11T06:36:59.360Z,92791.09
2023-03-11T06:39:25.827Z,92810.16
2023-03-11T06:41:52.281Z,92804.53
2023-03-11T06:44:18.713Z,92812.28
2023-03-11T06:46:45.339Z,92816.28
2023-03-11T06:49:11.732Z,92833.47
2023-03-11T06:51:38.115Z,92825.63
2023-03-11T06:54:04.680Z,92818.72
2023-03-11T06:56:53.816Z,92843.16
2023-03-11T06:59:20.821Z,92815.25
2023-03-11T07:01:47.261Z,92836.41
2023-03-11T07:04:14.757Z,92847.31
2023-03-11T07:06:45.258Z,92838.34
2023-03-11T07:09:13.118Z,92845.75
2023-03-11T07:11:39.607Z,92842.22
2023-03-11T07:14:08.498Z,92876.25
2023-03-11T07:16:43.416Z,92854.38
2023-03-11T07:19:10.870Z,92853.38
2023-03-11T07:21:38.831Z,92867.84
2023-03-11T07:24:06.340Z,92872.34
2023-03-11T07:26:34.543Z,92890.03
2023-03-11T07:29:05.036Z,92867.56
2023-03-11T07:31:37.732Z,92882.63
2023-03-11T07:34:11.249Z,92900.28
2023-03-11T07:36:40.567Z,92911.72
2023-03-11T07:39:07.464Z,92893.91
2023-03-11T07:41:41.330Z,92882.16
2023-03-11T07:44:09.841Z,92884.59
2023-03-11T07:46:36.355Z,92912.69
2023-03-11T07:49:03.719Z,92915.03
2023-03-11T07:51:34.987Z,92906.09
2023-03-11T07:54:04.260Z,92901.44
2023-03-11T07:56:57.527Z,92922.16
2023-03-11T07:59:24.275Z,92892.91
2023-03-11T08:01:50.785Z,92911.84
2023-03-11T08:04:17.376Z,92923.69
2023-03-11T08:06:48.203Z,92923.38
2023-03-11T08:09:22.539Z,92885.81
2023-03-11T08:12:23.340Z,92919.81
2023-03-11T08:14:49.766Z,92894.78
2023-03-11T08:17:16.234Z,92903.47
2023-03-11T08:19:42.637Z,92901.53
2023-03-11T08:22:12.260Z,92903.75
2023-03-11T08:24:43.666Z,92926.44
2023-03-11T08:27:10.159Z,92914.41
2023-03-11T08:29:36.601Z,92941.69
2023-03-11T08:32:12.422Z,92932.03
2023-03-11T08:34:39.941Z,92931.06
2023-03-11T08:37:12.535Z,92914.06
2023-03-11T08:39:49.241Z,92919.47
2023-03-11T08:42:17.829Z,92865.59
2023-03-11T08:44:44.278Z,92935.47
2023-03-11T08:47:10.745Z,92933.34
2023-03-11T08:49:43.539Z,92933.06
2023-03-11T08:52:13.109Z,92932.78
2023-03-11T08:54:43.730Z,92927.31
2023-03-11T08:57:10.199Z,92933.44
2023-03-11T08:59:47.891Z,92918.97
2023-03-11T09:02:19.462Z,92949.81
2023-03-11T09:04:46.879Z,92929.56
2023-03-11T09:07:14.382Z,92953.34
2023-03-11T09:09:43.405Z,92931.47
2023-03-11T09:12:19.051Z,92928.22
2023-03-11T09:14:56.230Z,92942.44
2023-03-11T09:17:31.947Z,92941.94
2023-03-11T09:19:58.410Z,92958.28
2023-03-11T09:22:24.912Z,92946.03
2023-03-11T09:24:51.306Z,92967.00
2023-03-11T09:27:17.775Z,92960.34
2023-03-11T09:29:44.193Z,92949.63
2023-03-11T09:32:15.551Z,92981.91
2023-03-11T09:34:42.210Z,92986.09
2023-03-11T09:37:08.897Z,92975.69
2023-03-11T09:39:35.275Z,92945.22
2023-03-11T09:42:18.733Z,92959.44
2023-03-11T09:45:18.971Z,92978.50
2023-03-11T09:48:22.869Z,92979.16
2023-03-11T09:51:00.807Z,92983.41
2023-03-11T12:01:01.473Z,92980.09
2023-03-11T12:03:58.559Z,92976.78
2023-03-11T12:06:30.634Z,92972.81
2023-03-11T12:09:24.033Z,92971.84
2023-03-11T12:11:56.158Z,92969.94
2023-03-11T12:14:48.374Z,92961.22
2023-03-11T12:17:18.718Z,92961.09
2023-03-11T12:20:00.134Z,92958.69
2023-03-11T12:23:07.977Z,92955.88
2023-03-11T12:25:45.589Z,92965.69
2023-03-11T12:28:22.326Z,92955.66
2023-03-11T12:30:54.206Z,92955.28
2023-03-11T12:33:34.143Z,92943.91
2023-03-11T12:36:02.089Z,92947.56
2023-03-11T12:38:33.067Z,92943.03
2023-03-11T12:41:01.317Z,92950.31
2023-03-11T12:43:33.839Z,92948.31
2023-03-11T12:46:08.363Z,92925.56
2023-03-11T12:48:51.112Z,92947.59
2023-03-11T12:51:33.632Z,92947.13
2023-03-11T12:54:23.188Z,92946.47
2023-03-11T12:57:05.503Z,92946.69
2023-03-11T12:59:53.787Z,92947.63
2023-03-11T13:02:57.942Z,92936.78
2023-03-11T13:06:12.802Z,92937.22
2023-03-11T13:08:48.830Z,92927.22
2023-03-11T13:11:33.564Z,92939.56
2023-03-11T13:14:11.936Z,92909.47
2023-03-11T13:16:39.728Z,92942.72
2023-03-11T13:19:47.542Z,92943.94
2023-03-11T13:22:42.468Z,92935.75
2023-03-11T13:25:37.492Z,92942.59
2023-03-11T13:28:43.681Z,92936.94
2023-03-11T13:31:29.885Z,92944.34
2023-03-11T13:34:16.970Z,92934.44
2023-03-11T13:36:48.622Z,92939.03
2023-03-11T13:39:24.224Z,92946.22
2023-03-11T13:41:50.631Z,92921.81
2023-03-11T13:44:38.873Z,92939.91
2023-03-11T13:47:17.583Z,92909.91
2023-03-11T13:49:51.724Z,92944.09
2023-03-11T13:52:30.428Z,92928.72
2023-03-11T13:55:06.348Z,92944.09
2023-03-11T13:57:36.044Z,92924.25
2023-03-11T14:00:17.835Z,92938.94
2023-03-11T14:03:02.247Z,92927.97
2023-03-11T14:05:44.455Z,92914.69
2023-03-11T14:08:31.798Z,92935.38
2023-03-11T14:11:16.606Z,92911.59
2023-03-11T14:13:49.943Z,92938.84
2023-03-11T14:16:44.031Z,92937.56
2023-03-11T14:19:20.103Z,92927.41
2023-03-11T14:21:49.919Z,92917.19
2023-03-11T14:24:18.666Z,92941.69
2023-03-11T14:26:45.397Z,92931.53
2023-03-11T14:29:17.468Z,92922.84
2023-03-11T14:31:44.952Z,92928.16
2023-03-11T14:34:11.300Z,92950.03
2023-03-11T14:36:44.855Z,92939.69
2023-03-11T14:39:33.626Z,92955.22
2023-03-11T14:42:22.714Z,92955.34
2023-03-11T14:45:07.195Z,92951.06
2023-03-11T14:47:40.102Z,92950.28
2023-03-11T14:50:14.173Z,92940.78
2023-03-11T14:52:48.624Z,92948.66
2023-03-11T14:55:29.122Z,92964.19
2023-03-11T14:58:02.771Z,92961.25
2023-03-11T15:00:36.312Z,92978.84
2023-03-11T15:03:39.067Z,92982.19
2023-03-11T15:06:12.003Z,92981.72
2023-03-11T15:08:47.824Z,92953.84
2023-03-11T15:11:20.450Z,92968.22
2023-03-11T15:13:53.268Z,92966.50
2023-03-11T15:16:39.068Z,92976.16
2023-03-11T15:19:28.750Z,92978.50
2023-03-11T15:22:29.987Z,92979.00
2023-03-11T15:25:01.364Z,92990.19
2023-03-11T15:27:35.745Z,92987.00
2023-03-11T15:30:26.462Z,92984.28
2023-03-11T15:32:53.484Z,92963.00
2023-03-11T15:35:28.666Z,92977.53
2023-03-11T15:38:23.490Z,92983.72
2023-03-11T15:41:03.706Z,92980.09
2023-03-11T15:44:04.129Z,92991.44
2023-03-11T15:46:30.619Z,92971.47
2023-03-11T15:49:04.717Z,92943.50
2023-03-11T15:51:41.182Z,92956.88
2023-03-11T15:54:11.011Z,92971.59
2023-03-11T15:56:38.450Z,92980.22
2023-03-11T15:59:04.855Z,92974.56
2023-03-11T16:01:31.312Z,92981.22
2023-03-11T16:03:57.774Z,92958.25
2023-03-11T16:06:24.210Z,92976.47
2023-03-11T16:08:50.786Z,92987.16
2023-03-11T16:11:18.718Z,92963.09
2023-03-11T16:13:45.309Z,92977.84
2023-03-11T16:16:17.184Z,92994.88
2023-03-11T16:18:53.921Z,92994.88
2023-03-11T16:21:31.686Z,92980.72
2023-03-11T16:23:59.131Z,92995.59
2023-03-11T16:26:25.633Z,92997.38
2023-03-11T16:29:06.213Z,93008.25
2023-03-11T16:31:39.296Z,92994.56
2023-03-11T16:34:15.016Z,92989.22
2023-03-11T16:36:48.556Z,93009.22
2023-03-11T16:39:14.961Z,93024.47
2023-03-11T16:41:44.307Z,93008.50
2023-03-11T16:44:11.280Z,93020.38
2023-03-11T16:46:38.797Z,93011.59
2023-03-11T16:49:13.334Z,93019.09
2023-03-11T16:51:39.711Z,93018.56
2023-03-11T16:54:06.371Z,93042.28
2023-03-11T16:56:32.943Z,93042.34
2023-03-11T16:59:04.298Z,93052.25
2023-03-11T17:01:30.879Z,93044.94
2023-03-11T17:03:57.339Z,93055.75
2023-03-11T17:06:24.037Z,93062.44
2023-03-11T17:08:50.562Z,93045.19
2023-03-11T17:11:19.406Z,93045.94
2023-03-11T17:13:46.326Z,93043.94
2023-03-11T17:16:14.074Z,93056.63
2023-03-11T17:18:40.636Z,93059.63
2023-03-11T17:21:09.350Z,93079.94
2023-03-11T17:23:36.386Z,93090.47
2023-03-11T17:26:17.236Z,93084.66
2023-03-11T17:28:43.776Z,93104.97
2023-03-11T17:31:28.666Z,93101.41
2023-03-11T17:33:55.167Z,93105.75
2023-03-11T17:36:21.650Z,93088.59
2023-03-11T17:38:51.087Z,93108.41
2023-03-11T17:41:18.038Z,93115.19
2023-03-11T17:43:51.347Z,93084.25
2023-03-11T17:46:20.809Z,93125.31
2023-03-11T17:48:48.524Z,93113.34
2023-03-11T17:51:17.350Z,93105.31
2023-03-11T17:53:50.662Z,93123.53
2023-03-11T17:56:18.489Z,93126.19
2023-03-11T17:58:45.293Z,93122.56
2023-03-11T18:01:24.213Z,93120.63
2023-03-11T18:03:54.415Z,93110.69
2023-03-11T18:06:22.658Z,93135.81
2023-03-11T18:08:50.058Z,93137.69
2023-03-11T18:11:20.033Z,93147.75
2023-03-11T18:13:52.027Z,93115.84
2023-03-11T18:16:33.716Z,93100.38
2023-03-11T18:19:04.625Z,93134.56
2023-03-11T18:21:40.267Z,93122.38
2023-03-11T18:24:07.024Z,93134.66
2023-03-11T18:26:33.501Z,93133.56
2023-03-11T18:29:00.471Z,93162.97
2023-03-11T18:31:30.232Z,93151.06
2023-03-11T18:34:13.577Z,93159.50
2023-03-11T18:36:44.723Z,93149.78
2023-03-11T20:51:29.319Z,93248.03
2023-03-11T20:53:57.171Z,93230.16
2023-03-11T20:56:26.008Z,93274.44
2023-03-11T20:58:53.219Z,93257.38
2023-03-11T21:01:25.349Z,93263.84
2023-03-11T21:03:57.268Z,93264.47
2023-03-11T21:06:27.200Z,93227.13
2023-03-11T21:08:55.531Z,93276.06
2023-03-11T21:11:23.087Z,93281.22
2023-03-11T21:13:52.322Z,93216.19
2023-03-11T21:16:21.655Z,93271.22
2023-03-11T21:19:10.248Z,93278.63
2023-03-11T21:21:37.402Z,93281.88
2023-03-11T21:24:07.141Z,93277.38
2023-03-11T21:26:35.224Z,93258.81
2023-03-11T21:29:04.865Z,93272.06
2023-03-11T21:31:31.689Z,93235.16
2023-03-11T21:33:59.303Z,93256.75
2023-03-11T21:36:25.922Z,93273.50
2023-03-11T21:38:54.723Z,93260.75
2023-03-11T21:41:24.995Z,93260.59
2023-03-11T21:43:53.278Z,93239.50
2023-03-11T21:46:22.981Z,93278.16
2023-03-11T21:48:50.278Z,93278.31
2023-03-11T21:51:18.839Z,93290.88
2023-03-11T21:53:45.956Z,93283.94
2023-03-11T21:56:13.537Z,93281.84
2023-03-11T21:58:41.816Z,93296.03
2023-03-11T22:01:09.546Z,93262.53
2023-03-11T22:03:36.935Z,93287.00
2023-03-11T22:06:09.663Z,93257.06
2023-03-11T22:08:52.836Z,93268.66
2023-03-11T22:11:20.528Z,93248.19
2023-03-11T22:13:49.185Z,93305.03
2023-03-11T22:16:16.958Z,93252.22
2023-03-11T22:18:43.832Z,93274.41
2023-03-11T22:21:11.077Z,93270.88
2023-03-11T22:23:37.682Z,93287.31
2023-03-11T22:26:04.332Z,93267.31
2023-03-11T22:28:30.780Z,93260.91
2023-03-11T22:30:57.259Z,93250.75
2023-03-11T22:33:23.724Z,93241.53
2023-03-11T22:35:55.555Z,93301.78
2023-03-11T22:38:22.746Z,93309.50
2023-03-11T22:40:49.843Z,93292.72
2023-03-11T22:43:16.545Z,93280.28
2023-03-11T22:45:44.885Z,93299.31
2023-03-11T22:48:11.621Z,93307.81
2023-03-11T22:50:44.379Z,93308.13
2023-03-11T22:53:12.499Z,93327.81
2023-03-11T22:55:44.239Z,93299.47
2023-03-11T22:58:11.674Z,93289.44
2023-03-11T23:00:38.797Z,93340.94
2023-03-11T23:03:05.684Z,93335.84
2023-03-11T23:05:32.288Z,93299.00
2023-03-11T23:07:58.720Z,93270.63
2023-03-11T23:10:25.114Z,93322.91
2023-03-11T23:12:51.518Z,93289.25
2023-03-11T23:15:19.202Z,93352.22
2023-03-11T23:17:45.701Z,93281.38
2023-03-11T23:20:14.487Z,93345.59
2023-03-11T23:22:42.026Z,93286.88
2023-03-11T23:25:12.245Z,93344.91
2023-03-11T23:27:38.806Z,93317.06
2023-03-11T23:30:16.650Z,93300.09
2023-03-11T23:32:44.328Z,93308.19
2023-03-11T23:35:11.941Z,93333.97
2023-03-11T23:37:38.487Z,93329.13
2023-03-11T23:40:05.926Z,93320.44
2023-03-11T23:42:34.677Z,93311.28
2023-03-11T23:45:01.969Z,93325.16
2023-03-11T23:47:28.767Z,93331.41
2023-03-11T23:49:55.211Z,93304.03
2023-03-11T23:52:21.812Z,93312.09
2023-03-11T23:54:48.227Z,93321.72
2023-03-11T23:57:14.646Z,93302.38
2023-03-11T23:59:41.016Z,93311.47
